createdAt,value
2022-08-17T00:01:32.810Z,3.30
2022-08-17T00:04:19.081Z,3.42
2022-08-17T00:06:46.073Z,3.60
2022-08-17T00:09:18.852Z,3.40
2022-08-17T00:12:43.178Z,3.15
2022-08-17T00:14:36.153Z,3.47
2022-08-17T00:17:04.632Z,3.70
2022-08-17T00:19:32.665Z,3.67
2022-08-17T00:22:30.909Z,3.55
2022-08-17T00:24:49.589Z,4.03
2022-08-17T00:27:16.179Z,3.75
2022-08-17T00:29:42.733Z,4.20
2022-08-17T00:33:15.777Z,3.70
2022-08-17T00:34:55.757Z,3.72
2022-08-17T00:37:22.283Z,4.30
2022-08-17T00:39:48.937Z,4.38
2022-08-17T00:42:18.442Z,3.88
2022-08-17T00:44:45.889Z,3.75
2022-08-17T00:47:12.544Z,3.85
2022-08-17T00:49:39.077Z,3.47
2022-08-17T00:52:15.333Z,3.53
2022-08-17T00:54:44.865Z,3.75
2022-08-17T00:57:17.717Z,3.97
2022-08-17T00:59:47.198Z,3.72
2022-08-17T01:02:35.014Z,4.15
2022-08-17T01:05:15.093Z,4.22
2022-08-17T01:07:42.797Z,4.07
2022-08-17T01:10:58.125Z,4.20
2022-08-17T01:13:02.468Z,4.30
2022-08-17T01:15:36.380Z,3.83
2022-08-17T01:18:05.448Z,4.13
2022-08-17T01:20:32.512Z,3.80
2022-08-17T01:23:18.595Z,3.40
2022-08-17T01:25:52.323Z,3.90
2022-08-17T01:28:52.425Z,4.55
2022-08-17T01:31:08.303Z,4.13
2022-08-17T01:33:35.507Z,4.32
2022-08-17T01:36:03.592Z,4.20
2022-08-17T01:38:31.813Z,4.90
2022-08-17T01:41:06.420Z,4.43
2022-08-17T01:43:39.758Z,4.53
2022-08-17T01:46:06.392Z,4.55
2022-08-17T01:48:34.690Z,4.35
2022-08-17T01:51:01.771Z,5.22
2022-08-17T01:53:34.402Z,4.38
2022-08-17T01:56:11.237Z,4.20
2022-08-17T01:58:38.725Z,4.65
2022-08-17T02:01:07.280Z,4.38
2022-08-17T02:03:34.894Z,4.40
2022-08-17T02:06:02.492Z,4.82
2022-08-17T02:08:38.761Z,4.47
2022-08-17T02:11:12.049Z,4.18
2022-08-17T02:13:39.092Z,4.35
2022-08-17T02:16:05.805Z,4.70
2022-08-17T02:18:32.741Z,4.65
2022-08-17T02:20:59.681Z,4.70
2022-08-17T02:23:30.150Z,6.38
2022-08-17T02:25:59.954Z,5.85
2022-08-17T02:28:28.465Z,6.13
2022-08-17T02:31:00.719Z,6.65
2022-08-17T02:33:42.475Z,6.07
2022-08-17T02:36:11.340Z,7.25
2022-08-17T02:38:38.762Z,6.47
2022-08-17T02:41:05.506Z,6.85
2022-08-17T02:43:32.065Z,7.93
2022-08-17T02:45:58.579Z,7.30
2022-08-17T02:48:31.247Z,7.22
2022-08-17T02:50:58.956Z,7.28
2022-08-17T02:53:25.865Z,6.40
2022-08-17T02:55:53.189Z,6.53
2022-08-17T02:58:35.535Z,7.00
2022-08-17T03:01:05.105Z,6.50
2022-08-17T03:03:32.208Z,6.20
2022-08-17T03:05:58.710Z,6.20
2022-08-17T03:08:25.533Z,6.57
2022-08-17T03:10:52.172Z,6.55
2022-08-17T03:13:18.851Z,5.65
2022-08-17T03:15:47.219Z,6.38
2022-08-17T03:18:25.001Z,6.57
2022-08-17T03:20:55.304Z,6.00
2022-08-17T03:23:24.104Z,5.35
2022-08-17T03:25:52.821Z,5.70
2022-08-17T03:28:19.776Z,6.25
2022-08-17T03:30:46.396Z,6.68
2022-08-17T03:33:13.741Z,6.25
2022-08-17T03:35:41.057Z,6.50
2022-08-17T03:38:10.455Z,6.43
2022-08-17T03:40:57.101Z,5.80
2022-08-17T03:43:23.939Z,6.43
2022-08-17T03:46:23.714Z,6.15
2022-08-17T03:49:13.277Z,6.70
2022-08-17T03:51:58.175Z,6.35
2022-08-17T03:54:43.153Z,6.13
2022-08-17T03:57:11.274Z,6.50
2022-08-17T03:59:39.046Z,6.45
2022-08-17T04:02:28.523Z,6.25
2022-08-17T04:04:55.088Z,6.60
2022-08-17T04:07:24.118Z,6.65
2022-08-17T04:09:51.095Z,5.72
2022-08-17T04:12:19.777Z,6.20
2022-08-17T04:14:53.445Z,5.90
2022-08-17T04:17:27.160Z,6.50
2022-08-17T04:19:55.252Z,6.05
2022-08-17T04:22:30.531Z,5.80
2022-08-17T04:25:01.479Z,5.60
2022-08-17T04:27:28.024Z,5.63
2022-08-17T04:29:55.984Z,5.78
2022-08-17T04:33:04.386Z,4.68
2022-08-17T04:35:10.202Z,5.28
2022-08-17T04:37:36.692Z,5.10
2022-08-17T04:40:22.582Z,4.80
2022-08-17T04:43:20.393Z,5.20
2022-08-17T04:45:55.477Z,4.78
2022-08-17T04:51:05.779Z,4.63
2022-08-17T04:53:32.603Z,4.47
2022-08-17T04:55:59.188Z,5.00
2022-08-17T04:58:25.960Z,4.72
2022-08-17T05:00:52.730Z,4.70
2022-08-17T05:03:19.269Z,4.75
2022-08-17T05:05:49.762Z,4.40
2022-08-17T05:08:19.232Z,4.07
2022-08-17T05:10:46.908Z,4.22
2022-08-17T05:13:17.794Z,4.50
2022-08-17T05:15:47.720Z,3.78
2022-08-17T05:18:15.709Z,3.75
2022-08-17T05:20:43.496Z,4.30
2022-08-17T05:23:12.849Z,7.68
2022-08-17T05:25:47.746Z,7.53
2022-08-17T05:28:16.359Z,7.50
2022-08-17T05:30:44.720Z,7.15
2022-08-17T05:33:21.836Z,6.10
2022-08-17T05:35:51.666Z,4.55
2022-08-17T05:38:19.698Z,5.18
2022-08-17T05:40:46.989Z,6.07
2022-08-17T05:43:17.488Z,5.50
2022-08-17T05:45:59.207Z,6.60
2022-08-17T05:48:35.613Z,6.53
2022-08-17T05:51:32.967Z,6.22
2022-08-17T05:54:17.850Z,6.70
2022-08-17T05:56:50.491Z,5.03
2022-08-17T06:00:03.544Z,4.32
2022-08-17T06:03:06.586Z,5.55
2022-08-17T06:05:42.262Z,5.60
2022-08-17T06:08:18.101Z,5.50
2022-08-17T06:11:06.899Z,7.07
2022-08-17T06:13:36.436Z,5.63
2022-08-17T06:16:28.209Z,6.65
2022-08-17T06:19:06.449Z,5.25
2022-08-17T06:21:39.455Z,5.72
2022-08-17T06:24:23.667Z,4.78
2022-08-17T06:26:52.281Z,6.10
2022-08-17T06:29:35.385Z,6.07
2022-08-17T06:32:03.293Z,7.03
2022-08-17T06:34:29.941Z,6.80
2022-08-17T06:37:03.740Z,6.40
2022-08-17T06:39:39.229Z,5.70
2022-08-17T06:43:04.105Z,5.07
2022-08-17T06:45:20.115Z,6.78
2022-08-17T06:47:53.071Z,6.90
2022-08-17T06:50:29.139Z,7.35
2022-08-17T06:53:28.361Z,7.30
2022-08-17T06:56:13.970Z,6.85
2022-08-17T06:58:43.317Z,5.35
2022-08-17T07:01:18.151Z,5.88
2022-08-17T07:03:54.766Z,5.05
2022-08-17T07:06:38.073Z,5.32
2022-08-17T07:09:14.633Z,7.72
2022-08-17T07:11:50.724Z,6.85
2022-08-17T07:14:39.072Z,6.72
2022-08-17T07:17:15.605Z,7.97
2022-08-17T07:19:45.489Z,6.15
2022-08-17T07:22:57.351Z,8.00
2022-08-17T07:25:21.389Z,6.40
2022-08-17T07:27:51.441Z,7.95
2022-08-17T07:30:22.770Z,7.55
2022-08-17T07:32:51.557Z,8.18
2022-08-17T07:35:23.052Z,8.00
2022-08-17T07:38:24.989Z,7.80
2022-08-17T07:41:05.944Z,7.70
2022-08-17T07:43:46.092Z,6.07
2022-08-17T07:46:38.023Z,8.50
2022-08-17T07:49:07.398Z,7.82
2022-08-17T07:51:55.419Z,9.15
2022-08-17T07:54:29.513Z,9.20
2022-08-17T07:57:00.301Z,9.32
2022-08-17T08:00:02.180Z,9.02
2022-08-17T08:02:40.221Z,9.15
2022-08-17T08:05:12.857Z,8.50
2022-08-17T08:08:01.579Z,8.35
2022-08-17T08:10:35.681Z,7.35
2022-08-17T08:13:15.485Z,9.20
2022-08-17T08:15:53.600Z,8.40
2022-08-17T08:18:53.438Z,7.90
2022-08-17T08:21:33.240Z,7.68
2022-08-17T08:24:21.764Z,7.38
2022-08-17T08:27:07.269Z,9.05
2022-08-17T08:29:46.213Z,7.45
2022-08-17T08:32:25.036Z,8.40
2022-08-17T08:35:07.330Z,7.43
2022-08-17T08:37:55.684Z,7.10
2022-08-17T08:40:56.101Z,9.75
2022-08-17T08:43:38.079Z,9.40
2022-08-17T08:46:37.042Z,10.38
2022-08-17T08:49:12.824Z,9.82
2022-08-17T08:51:53.358Z,9.88
2022-08-17T08:54:41.299Z,9.55
2022-08-17T08:57:34.311Z,10.98
2022-08-17T09:00:09.107Z,10.45
2022-08-17T09:02:57.041Z,10.43
2022-08-17T09:05:41.248Z,10.07
2022-08-17T09:08:32.301Z,9.95
2022-08-17T09:11:12.694Z,10.35
2022-08-17T09:13:46.877Z,9.38
2022-08-17T09:16:33.239Z,8.65
2022-08-17T09:19:17.247Z,8.93
2022-08-17T09:21:58.450Z,9.93
2022-08-17T09:24:40.120Z,11.45
2022-08-17T09:27:14.181Z,9.68
2022-08-17T09:29:49.149Z,11.13
2022-08-17T09:32:40.693Z,12.07
2022-08-17T09:35:22.756Z,11.95
2022-08-17T09:38:19.364Z,11.70
2022-08-17T09:40:57.314Z,12.68
2022-08-17T09:43:43.786Z,12.65
2022-08-17T09:46:30.705Z,12.57
2022-08-17T09:49:06.440Z,12.90
2022-08-17T09:51:40.178Z,12.57
2022-08-17T09:54:38.135Z,11.80
2022-08-17T09:57:30.327Z,13.02
2022-08-17T10:00:16.691Z,11.60
2022-08-17T10:03:16.791Z,12.35
2022-08-17T10:05:59.400Z,11.63
2022-08-17T10:09:08.290Z,12.10
2022-08-17T10:12:30.268Z,11.82
2022-08-17T10:15:09.347Z,13.95
2022-08-17T10:17:45.288Z,10.63
2022-08-17T10:20:34.037Z,14.23
2022-08-17T10:26:04.506Z,14.73
2022-08-17T10:28:47.787Z,14.82
2022-08-17T10:31:40.067Z,14.93
2022-08-17T10:34:27.824Z,12.07
2022-08-17T10:37:24.748Z,12.43
2022-08-17T10:40:19.022Z,11.95
2022-08-17T10:43:10.217Z,12.85
2022-08-17T10:45:48.622Z,12.70
2022-08-17T10:48:38.268Z,10.25
2022-08-17T10:51:09.262Z,14.95
2022-08-17T10:53:35.691Z,12.82
2022-08-17T10:56:13.938Z,13.30
2022-08-17T10:58:49.678Z,10.57
2022-08-17T11:01:17.965Z,12.38
2022-08-17T11:03:55.857Z,11.68
2022-08-17T11:06:31.086Z,12.82
2022-08-17T11:09:28.710Z,14.38
2022-08-17T11:12:33.758Z,13.63
2022-08-17T11:15:27.813Z,16.25
2022-08-17T11:17:58.157Z,13.48
2022-08-17T11:20:38.707Z,15.68
2022-08-17T11:23:32.510Z,17.17
2022-08-17T11:26:08.578Z,17.23
2022-08-17T11:28:48.851Z,16.23
2022-08-17T11:31:38.498Z,18.83
2022-08-17T11:34:26.466Z,18.50
2022-08-17T11:37:17.690Z,18.50
2022-08-17T11:40:35.693Z,15.23
2022-08-17T11:43:28.372Z,15.50
2022-08-17T11:46:07.259Z,20.35
2022-08-17T11:49:26.475Z,18.00
2022-08-17T11:52:01.824Z,18.20
2022-08-17T11:54:33.823Z,18.13
2022-08-17T11:57:26.573Z,16.85
2022-08-17T12:00:00.984Z,15.77
2022-08-17T12:02:35.062Z,18.88
2022-08-17T12:05:27.247Z,19.35
2022-08-17T12:07:56.552Z,17.35
2022-08-17T12:10:32.581Z,15.65
2022-08-17T12:13:05.291Z,12.98
2022-08-17T12:15:37.341Z,19.55
2022-08-17T12:18:04.269Z,20.98
2022-08-17T12:20:38.237Z,21.83
2022-08-17T12:23:33.791Z,15.35
2022-08-17T12:26:20.846Z,19.50
2022-08-17T12:28:51.773Z,20.90
2022-08-17T12:31:49.136Z,16.17
2022-08-17T12:34:26.594Z,21.13
2022-08-17T12:36:59.882Z,15.05
2022-08-17T12:39:27.858Z,16.02
2022-08-17T12:42:02.785Z,19.73
2022-08-17T12:44:33.487Z,21.35
2022-08-17T12:47:07.605Z,21.52
2022-08-17T12:49:37.203Z,17.88
2022-08-17T12:52:11.089Z,22.20
2022-08-17T12:54:40.324Z,17.40
2022-08-17T12:57:13.411Z,21.23
2022-08-17T12:59:46.449Z,19.95
2022-08-17T13:02:51.087Z,19.98
2022-08-17T13:05:36.137Z,20.70
2022-08-17T13:08:13.589Z,21.00
2022-08-17T13:10:40.927Z,19.35
2022-08-17T13:13:21.880Z,18.60
2022-08-17T13:16:00.760Z,18.65
2022-08-17T13:18:39.010Z,17.35
2022-08-17T13:21:30.362Z,17.90
2022-08-17T13:24:22.086Z,17.10
2022-08-17T13:27:07.986Z,16.98
2022-08-17T13:29:39.398Z,17.67
2022-08-17T13:32:13.000Z,18.75
2022-08-17T13:35:08.325Z,16.55
2022-08-17T13:37:36.180Z,17.58
2022-08-17T13:40:09.021Z,19.35
2022-08-17T13:42:53.134Z,17.88
2022-08-17T13:45:36.246Z,19.88
2022-08-17T13:48:14.504Z,18.40
2022-08-17T13:50:55.233Z,20.08
2022-08-17T13:53:34.241Z,14.52
2022-08-17T13:56:37.020Z,18.33
2022-08-17T13:59:12.482Z,18.48
2022-08-17T14:01:53.362Z,16.27
2022-08-17T14:04:25.117Z,19.13
2022-08-17T14:07:03.655Z,19.63
2022-08-17T14:09:39.971Z,18.50
2022-08-17T14:12:10.694Z,18.92
2022-08-17T14:14:38.118Z,16.48
2022-08-17T14:17:05.494Z,12.90
2022-08-17T14:19:36.037Z,16.83
2022-08-17T14:22:03.817Z,13.88
2022-08-17T14:24:41.233Z,13.10
2022-08-17T14:27:10.613Z,10.50
2022-08-17T14:29:37.114Z,16.92
2022-08-17T14:32:16.493Z,15.25
2022-08-17T14:34:43.122Z,17.17
2022-08-17T14:37:09.909Z,12.48
2022-08-17T14:39:36.640Z,15.07
2022-08-17T14:42:03.664Z,12.35
2022-08-17T14:44:30.254Z,11.43
2022-08-17T14:46:56.815Z,14.63
2022-08-17T14:49:23.880Z,16.15
2022-08-17T14:51:51.247Z,15.75
2022-08-17T14:54:33.868Z,15.38
2022-08-17T14:57:22.722Z,15.13
2022-08-17T14:59:54.593Z,10.38
2022-08-17T15:02:29.544Z,16.25
2022-08-17T15:05:03.558Z,15.32
2022-08-17T15:07:30.413Z,12.35
2022-08-17T15:09:58.690Z,13.32
2022-08-17T15:12:32.081Z,15.13
2022-08-17T15:15:00.698Z,14.75
2022-08-17T15:17:27.567Z,12.23
2022-08-17T15:20:17.874Z,13.10
2022-08-17T15:22:46.443Z,12.48
2022-08-17T15:25:13.652Z,11.98
2022-08-17T15:27:40.509Z,12.55
2022-08-17T15:30:08.552Z,11.60
2022-08-17T15:32:38.301Z,11.10
2022-08-17T15:35:07.783Z,10.65
2022-08-17T15:37:36.400Z,10.57
2022-08-17T15:40:04.041Z,9.63
2022-08-17T15:42:30.981Z,10.07
2022-08-17T15:44:57.649Z,11.70
2022-08-17T15:47:24.223Z,13.07
2022-08-17T15:49:50.933Z,11.07
2022-08-17T15:52:29.842Z,10.90
2022-08-17T15:54:59.622Z,8.85
2022-08-17T15:57:27.374Z,9.77
2022-08-17T15:59:58.580Z,12.85
2022-08-17T16:03:14.688Z,10.45
2022-08-17T16:05:19.862Z,9.65
2022-08-17T16:07:47.051Z,9.20
2022-08-17T16:10:18.808Z,7.68
2022-08-17T16:12:47.861Z,7.93
2022-08-17T16:15:16.234Z,9.90
2022-08-17T16:17:42.982Z,8.52
2022-08-17T16:20:19.960Z,8.00
2022-08-17T16:22:49.141Z,10.07
2022-08-17T16:25:22.273Z,10.50
2022-08-17T16:27:53.379Z,9.82
2022-08-17T16:30:23.332Z,10.27
2022-08-17T16:32:54.006Z,10.23
2022-08-17T16:35:25.062Z,8.05
2022-08-17T16:37:56.202Z,8.35
2022-08-17T16:40:26.902Z,7.43
2022-08-17T16:42:53.919Z,18.45
2022-08-17T16:45:25.935Z,12.88
2022-08-17T16:47:54.679Z,9.63
2022-08-17T16:50:23.477Z,8.30
2022-08-17T16:52:51.150Z,11.02
2022-08-17T16:55:21.918Z,8.70
2022-08-17T16:57:50.193Z,7.72
2022-08-17T17:00:18.338Z,7.22
2022-08-17T17:02:47.377Z,8.07
2022-08-17T17:05:13.930Z,8.07
2022-08-17T17:08:03.198Z,6.82
2022-08-17T17:10:41.937Z,8.52
2022-08-17T17:13:17.084Z,8.38
2022-08-17T17:16:06.917Z,13.40
2022-08-17T17:18:41.182Z,7.18
2022-08-17T17:21:17.536Z,8.43
2022-08-17T17:23:56.143Z,7.95
2022-08-17T17:26:50.470Z,10.23
2022-08-17T17:29:28.999Z,7.47
2022-08-17T17:32:24.723Z,9.65
2022-08-17T17:34:59.713Z,7.57
2022-08-17T17:37:33.898Z,8.15
2022-08-17T17:40:06.607Z,6.28
2022-08-17T17:42:33.990Z,7.28
2022-08-17T17:45:12.190Z,8.60
2022-08-17T17:47:39.035Z,7.35
2022-08-17T17:50:07.609Z,8.70
2022-08-17T17:53:02.146Z,8.27
2022-08-17T17:55:32.883Z,7.15
2022-08-17T17:58:13.700Z,6.95
2022-08-17T18:00:52.699Z,6.88
2022-08-17T18:03:51.779Z,6.03
2022-08-17T18:06:18.756Z,7.30
2022-08-17T18:09:04.539Z,7.00
2022-08-17T18:11:51.501Z,6.07
2022-08-17T18:14:39.492Z,5.00
2022-08-17T18:17:06.810Z,6.00
2022-08-17T18:19:33.514Z,7.70
2022-08-17T18:22:14.194Z,8.20
2022-08-17T18:24:44.991Z,12.45
2022-08-17T18:27:29.106Z,8.25
2022-08-17T18:29:58.119Z,5.65
2022-08-17T18:32:29.662Z,6.30
2022-08-17T18:35:02.757Z,6.38
2022-08-17T18:37:48.388Z,8.20
2022-08-17T18:40:18.417Z,6.10
2022-08-17T18:43:03.072Z,6.40
2022-08-17T18:45:34.415Z,6.07
2022-08-17T18:48:01.703Z,13.18
2022-08-17T18:50:36.580Z,7.80
2022-08-17T18:53:26.826Z,5.88
2022-08-17T18:56:24.651Z,5.95
2022-08-17T18:59:10.993Z,5.95
2022-08-17T19:01:52.474Z,4.85
2022-08-17T19:05:01.956Z,4.82
2022-08-17T19:07:34.566Z,8.02
2022-08-17T19:10:04.114Z,7.13
2022-08-17T19:12:47.174Z,8.52
2022-08-17T19:15:19.100Z,7.18
2022-08-17T19:18:03.553Z,11.32
2022-08-17T19:20:41.655Z,7.20
2022-08-17T19:23:23.191Z,9.48
2022-08-17T19:25:53.342Z,7.97
2022-08-17T19:30:54.685Z,7.32
2022-08-17T19:33:21.509Z,7.85
2022-08-17T19:35:57.502Z,9.45
2022-08-17T19:38:35.648Z,7.15
2022-08-17T19:41:02.157Z,6.65
2022-08-17T19:43:28.643Z,6.65
2022-08-17T19:46:18.865Z,6.35
2022-08-17T19:49:04.499Z,6.25
2022-08-17T19:51:57.097Z,6.40
2022-08-17T19:54:34.996Z,5.35
2022-08-17T19:57:27.381Z,5.97
2022-08-17T20:00:02.814Z,7.07
2022-08-17T20:02:44.250Z,6.50
2022-08-17T20:05:25.597Z,6.72
2022-08-17T20:08:07.620Z,6.20
2022-08-17T20:10:45.186Z,5.75
2022-08-17T20:13:33.575Z,6.40
2022-08-17T20:16:01.701Z,6.68
2022-08-17T20:18:34.292Z,7.00
2022-08-17T20:21:20.063Z,6.43
2022-08-17T20:23:59.507Z,6.28
2022-08-17T20:26:49.130Z,6.55
2022-08-17T20:29:37.486Z,6.40
2022-08-17T20:32:17.535Z,5.75
2022-08-17T20:34:47.243Z,6.28
2022-08-17T20:37:14.415Z,6.22
2022-08-17T20:39:50.084Z,6.10
2022-08-17T20:42:19.875Z,6.30
2022-08-17T20:44:48.964Z,7.07
2022-08-17T20:47:27.028Z,6.32
2022-08-17T20:50:08.290Z,6.20
2022-08-17T20:52:56.065Z,5.43
2022-08-17T20:55:51.811Z,5.75
2022-08-17T20:58:30.811Z,6.22
2022-08-17T21:00:57.858Z,6.10
2022-08-17T21:03:24.499Z,6.90
2022-08-17T21:06:02.890Z,7.47
2022-08-17T21:08:54.577Z,7.25
2022-08-17T21:11:56.870Z,6.40
2022-08-17T21:14:46.020Z,6.13
2022-08-17T21:17:24.783Z,7.40
2022-08-17T21:20:10.848Z,7.55
2022-08-17T21:22:38.240Z,7.75
2022-08-17T21:25:26.377Z,9.48
2022-08-17T21:28:01.795Z,8.15
2022-08-17T21:30:28.245Z,7.15
2022-08-17T21:33:17.866Z,6.72
2022-08-17T21:36:12.755Z,8.32
2022-08-17T21:38:55.689Z,7.75
2022-08-17T21:41:33.708Z,7.50
2022-08-17T21:44:13.304Z,8.25
2022-08-17T21:46:43.007Z,8.02
2022-08-17T21:49:16.764Z,7.75
2022-08-17T21:51:56.444Z,7.55
2022-08-17T21:54:35.467Z,7.05
2022-08-17T21:57:05.747Z,7.47
2022-08-17T21:59:37.383Z,8.20
2022-08-17T22:02:07.430Z,8.93
2022-08-17T22:04:35.936Z,7.95
2022-08-17T22:07:09.356Z,7.50
2022-08-17T22:09:43.804Z,8.15
2022-08-17T22:12:15.735Z,7.85
2022-08-17T22:15:01.032Z,8.25
2022-08-17T22:17:37.016Z,18.08
2022-08-17T22:20:33.395Z,13.98
2022-08-17T22:23:18.467Z,13.10
2022-08-17T22:26:02.163Z,11.57
2022-08-17T22:28:46.584Z,11.52
2022-08-17T22:31:16.623Z,12.23
2022-08-17T22:34:03.352Z,10.85
2022-08-17T22:36:36.870Z,10.25
2022-08-17T22:39:09.363Z,11.88
2022-08-17T22:41:48.005Z,12.00
2022-08-17T22:44:17.618Z,10.27
2022-08-17T22:46:57.842Z,9.40
2022-08-17T22:49:29.271Z,10.43
2022-08-17T22:52:04.978Z,13.60
2022-08-17T22:54:50.296Z,19.38
2022-08-17T22:57:36.850Z,16.02
2022-08-17T23:00:05.597Z,15.02
2022-08-17T23:02:34.155Z,14.05
2022-08-17T23:05:13.299Z,14.10
2022-08-17T23:07:40.542Z,14.23
2022-08-17T23:10:10.343Z,15.27
2022-08-17T23:12:38.865Z,14.50
2022-08-17T23:18:05.897Z,13.50
2022-08-17T23:20:35.889Z,17.30
2022-08-17T23:23:06.412Z,15.77
2022-08-17T23:25:35.228Z,14.98
2022-08-17T23:28:05.089Z,20.42
2022-08-17T23:30:35.617Z,20.30
2022-08-17T23:33:07.673Z,19.45
2022-08-17T23:35:40.635Z,17.35
2022-08-17T23:38:12.873Z,13.82
2022-08-17T23:40:40.561Z,30.08
2022-08-17T23:43:23.416Z,32.53
2022-08-17T23:45:58.506Z,30.17
2022-08-17T23:48:34.921Z,30.08
2022-08-17T23:51:05.882Z,31.75
2022-08-17T23:53:34.371Z,20.75
2022-08-17T23:56:03.942Z,15.13
2022-08-17T23:58:38.521Z,18.63
